createdAt,value
2018-01-30T00:00:38.292Z,85.57
2018-01-30T00:03:07.517Z,85.01
2018-01-30T00:05:36.758Z,84.19
2018-01-30T00:08:05.982Z,84.87
2018-01-30T00:10:35.205Z,84.80
2018-01-30T00:13:04.402Z,84.88
2018-01-30T00:15:33.602Z,84.05
2018-01-30T00:18:02.818Z,84.62
2018-01-30T00:20:32.016Z,84.13
2018-01-30T00:23:01.310Z,84.93
2018-01-30T00:25:30.635Z,84.78
2018-01-30T00:28:00.591Z,84.00
2018-01-30T00:30:29.775Z,83.02
2018-01-30T00:32:59.047Z,83.88
2018-01-30T00:35:29.019Z,83.81
2018-01-30T00:37:58.346Z,82.85
2018-01-30T00:40:28.323Z,83.95
2018-01-30T00:42:57.534Z,83.82
2018-01-30T00:45:26.709Z,84.24
2018-01-30T00:47:56.029Z,84.58
2018-01-30T00:50:25.227Z,83.85
2018-01-30T00:52:54.403Z,84.63
2018-01-30T00:55:23.602Z,84.67
2018-01-30T00:57:54.381Z,84.30
2018-01-30T01:00:23.776Z,84.48
2018-01-30T01:02:53.088Z,84.37
2018-01-30T01:05:22.378Z,85.06
2018-01-30T01:07:52.347Z,85.24
2018-01-30T01:10:21.563Z,85.38
2018-01-30T01:12:50.824Z,85.24
2018-01-30T01:15:20.890Z,86.39
2018-01-30T01:17:50.095Z,86.06
2018-01-30T01:20:19.311Z,86.03
2018-01-30T01:22:49.362Z,86.13
2018-01-30T01:25:18.894Z,86.29
2018-01-30T01:27:48.113Z,86.31
2018-01-30T01:30:17.297Z,86.35
2018-01-30T01:32:46.667Z,86.16
2018-01-30T01:35:15.871Z,86.22
2018-01-30T01:37:45.093Z,86.33
2018-01-30T01:40:15.273Z,86.13
2018-01-30T01:42:46.182Z,86.17
2018-01-30T01:45:16.150Z,86.34
2018-01-30T01:47:45.418Z,86.79
2018-01-30T01:50:14.723Z,86.63
2018-01-30T01:52:43.931Z,86.25
2018-01-30T01:55:13.182Z,86.18
2018-01-30T01:57:42.365Z,86.23
2018-01-30T02:00:11.549Z,86.19
2018-01-30T02:02:40.766Z,86.41
2018-01-30T02:05:10.826Z,86.29
2018-01-30T02:07:40.098Z,86.29
2018-01-30T02:10:10.064Z,86.06
2018-01-30T02:12:39.278Z,86.29
2018-01-30T02:15:08.502Z,86.26
2018-01-30T02:17:37.728Z,86.14
2018-01-30T02:20:06.894Z,85.91
2018-01-30T02:22:36.090Z,86.02
2018-01-30T02:25:05.296Z,86.04
2018-01-30T02:27:35.310Z,85.82
2018-01-30T02:30:04.577Z,85.94
2018-01-30T02:32:34.586Z,85.83
2018-01-30T02:35:03.837Z,85.96
2018-01-30T02:37:33.834Z,86.14
2018-01-30T02:40:03.109Z,86.20
2018-01-30T02:42:32.342Z,86.50
2018-01-30T02:45:01.583Z,86.96
2018-01-30T02:47:30.869Z,87.08
2018-01-30T02:50:00.069Z,87.00
2018-01-30T02:52:29.311Z,87.24
2018-01-30T02:54:58.540Z,87.05
2018-01-30T02:57:28.530Z,87.21
2018-01-30T02:59:57.745Z,87.25
2018-01-30T03:02:27.017Z,87.41
2018-01-30T03:04:56.260Z,87.56
2018-01-30T03:07:26.219Z,87.67
2018-01-30T03:09:55.417Z,87.36
2018-01-30T03:12:24.631Z,87.64
2018-01-30T03:14:55.355Z,87.67
2018-01-30T03:17:24.590Z,87.66
2018-01-30T03:19:54.581Z,87.84
2018-01-30T03:22:23.839Z,87.88
2018-01-30T03:24:53.074Z,87.93
2018-01-30T03:27:22.296Z,88.08
2018-01-30T03:29:51.520Z,88.17
2018-01-30T03:32:20.790Z,88.25
2018-01-30T03:34:50.022Z,88.46
2018-01-30T03:37:19.274Z,88.57
2018-01-30T03:39:48.490Z,88.86
2018-01-30T03:42:18.479Z,88.73
2018-01-30T03:44:47.866Z,88.71
2018-01-30T03:47:17.110Z,88.75
2018-01-30T03:49:46.447Z,88.81
2018-01-30T03:52:15.666Z,88.76
2018-01-30T03:54:44.880Z,88.68
2018-01-30T03:57:14.266Z,88.92
2018-01-30T03:59:43.468Z,88.75
2018-01-30T04:02:12.669Z,88.63
2018-01-30T04:04:41.882Z,88.68
2018-01-30T04:07:11.882Z,88.71
2018-01-30T04:09:41.897Z,88.61
2018-01-30T04:12:12.710Z,88.69
2018-01-30T04:14:41.867Z,88.85
2018-01-30T04:17:11.195Z,89.22
2018-01-30T04:19:40.426Z,89.35
2018-01-30T04:22:09.635Z,89.57
2018-01-30T04:24:38.841Z,89.88
2018-01-30T04:27:08.811Z,90.00
2018-01-30T04:29:38.022Z,90.21
2018-01-30T04:32:07.256Z,90.50
2018-01-30T04:34:37.217Z,90.77
2018-01-30T04:37:06.442Z,90.71
2018-01-30T04:39:35.669Z,90.77
2018-01-30T04:42:05.166Z,90.98
2018-01-30T04:44:34.412Z,90.91
2018-01-30T04:47:03.662Z,90.88
2018-01-30T04:49:33.677Z,91.17
2018-01-30T04:52:03.652Z,91.05
2018-01-30T04:54:32.876Z,90.98
2018-01-30T04:57:02.092Z,91.14
2018-01-30T04:59:32.100Z,91.26
2018-01-30T05:02:01.369Z,91.45
2018-01-30T05:04:30.620Z,91.46
2018-01-30T05:06:59.883Z,91.46
2018-01-30T05:09:29.136Z,91.52
2018-01-30T05:11:58.475Z,91.42
2018-01-30T05:14:27.702Z,91.49
2018-01-30T05:16:58.411Z,91.18
2018-01-30T05:19:27.694Z,91.22
2018-01-30T05:21:57.095Z,91.25
2018-01-30T05:24:26.291Z,91.24
2018-01-30T05:26:55.603Z,91.58
2018-01-30T05:29:24.809Z,91.60
2018-01-30T05:31:54.060Z,91.72
2018-01-30T05:34:23.334Z,91.86
2018-01-30T05:36:53.354Z,91.62
2018-01-30T05:39:22.579Z,91.71
2018-01-30T05:41:51.791Z,91.56
2018-01-30T05:44:21.084Z,91.56
2018-01-30T05:46:50.386Z,91.52
2018-01-30T05:49:19.601Z,91.53
2018-01-30T05:51:48.956Z,91.19
2018-01-30T05:54:18.163Z,91.25
2018-01-30T05:56:47.376Z,91.08
2018-01-30T05:59:16.705Z,91.04
2018-01-30T06:01:45.940Z,91.20
2018-01-30T06:04:15.910Z,91.26
2018-01-30T06:06:45.120Z,91.12
2018-01-30T06:09:14.360Z,91.10
2018-01-30T06:11:43.558Z,90.96
2018-01-30T06:14:12.771Z,90.72
2018-01-30T06:16:42.002Z,90.65
2018-01-30T06:19:11.199Z,90.59
2018-01-30T06:21:40.406Z,90.63
2018-01-30T06:24:09.656Z,90.46
2018-01-30T06:26:38.923Z,90.52
2018-01-30T06:29:08.095Z,90.42
2018-01-30T06:31:37.334Z,90.45
2018-01-30T06:34:07.340Z,90.56
2018-01-30T06:36:37.313Z,90.55
2018-01-30T06:39:06.507Z,90.55
2018-01-30T06:41:35.722Z,90.42
2018-01-30T06:44:04.935Z,90.54
2018-01-30T06:46:34.188Z,90.88
2018-01-30T06:49:07.191Z,90.82
2018-01-30T06:51:37.312Z,90.67
2018-01-30T06:54:06.631Z,90.57
2018-01-30T06:56:36.676Z,90.73
2018-01-30T06:59:05.908Z,90.85
2018-01-30T07:01:35.157Z,90.64
2018-01-30T07:04:04.334Z,90.78
2018-01-30T07:06:34.368Z,90.67
2018-01-30T07:09:04.402Z,90.44
2018-01-30T07:11:34.371Z,90.55
2018-01-30T07:14:03.611Z,90.23
2018-01-30T07:16:33.588Z,90.41
2018-01-30T07:19:02.811Z,90.27
2018-01-30T07:21:32.790Z,90.27
2018-01-30T07:24:02.014Z,89.94
2018-01-30T07:26:31.220Z,90.04
2018-01-30T07:29:01.239Z,89.95
2018-01-30T07:31:31.235Z,90.09
2018-01-30T07:34:00.499Z,90.09
2018-01-30T07:36:29.699Z,89.86
2018-01-30T07:38:59.926Z,89.99
2018-01-30T07:41:29.210Z,89.86
2018-01-30T07:43:59.189Z,89.93
2018-01-30T07:46:29.393Z,89.86
2018-01-30T07:48:58.611Z,89.77
2018-01-30T07:51:28.637Z,89.76
2018-01-30T07:53:58.758Z,89.93
2018-01-30T07:56:28.730Z,89.79
2018-01-30T07:58:58.023Z,89.98
2018-01-30T08:01:27.264Z,89.99
2018-01-30T08:03:56.614Z,90.24
2018-01-30T08:06:25.841Z,90.25
2018-01-30T08:08:55.208Z,90.22
2018-01-30T08:11:24.443Z,90.38
2018-01-30T08:13:53.676Z,90.40
2018-01-30T08:16:22.979Z,90.51
2018-01-30T08:18:52.923Z,90.27
2018-01-30T08:21:22.964Z,90.26
2018-01-30T08:23:52.166Z,89.95
2018-01-30T08:26:21.354Z,89.99
2018-01-30T08:28:50.590Z,90.13
2018-01-30T08:31:19.983Z,90.28
2018-01-30T08:33:49.591Z,90.28
2018-01-30T08:36:19.567Z,90.41
2018-01-30T08:38:48.800Z,90.23
2018-01-30T08:41:18.814Z,90.29
2018-01-30T08:43:48.018Z,90.33
2018-01-30T08:46:17.495Z,90.25
2018-01-30T08:48:46.676Z,90.27
2018-01-30T08:51:15.890Z,90.40
2018-01-30T08:53:45.188Z,90.25
2018-01-30T08:56:14.426Z,90.10
2018-01-30T08:58:43.665Z,90.01
2018-01-30T09:01:12.958Z,90.04
2018-01-30T09:03:42.163Z,89.75
2018-01-30T09:06:11.419Z,89.77
2018-01-30T09:08:40.603Z,89.49
2018-01-30T09:11:10.594Z,89.06
2018-01-30T09:13:39.797Z,88.89
2018-01-30T09:16:09.029Z,88.65
2018-01-30T09:18:38.250Z,88.57
2018-01-30T09:21:07.521Z,88.23
2018-01-30T09:23:36.728Z,88.22
2018-01-30T09:26:05.960Z,88.16
2018-01-30T09:28:35.410Z,88.32
2018-01-30T09:31:04.940Z,88.25
2018-01-30T09:33:34.139Z,87.93
2018-01-30T09:36:03.398Z,87.63
2018-01-30T09:38:33.399Z,87.42
2018-01-30T09:41:02.614Z,87.27
2018-01-30T09:43:32.608Z,87.25
2018-01-30T09:46:01.858Z,87.62
2018-01-30T09:48:31.099Z,86.96
2018-01-30T09:51:00.307Z,86.79
2018-01-30T09:53:29.530Z,86.75
2018-01-30T09:55:59.514Z,86.82
2018-01-30T09:58:28.788Z,85.25
2018-01-30T10:00:58.808Z,85.17
2018-01-30T10:03:28.147Z,86.06
2018-01-30T10:05:57.370Z,85.73
2018-01-30T10:08:26.602Z,85.63
2018-01-30T10:10:55.855Z,85.59
2018-01-30T10:13:25.262Z,84.84
2018-01-30T10:15:54.476Z,85.17
2018-01-30T10:18:23.691Z,84.42
2018-01-30T10:20:52.903Z,84.74
2018-01-30T10:23:22.923Z,84.48
2018-01-30T10:25:52.910Z,84.70
2018-01-30T10:28:22.197Z,84.61
2018-01-30T10:30:51.466Z,85.05
2018-01-30T10:33:21.722Z,84.29
2018-01-30T10:35:51.326Z,84.27
2018-01-30T10:38:20.521Z,84.22
2018-01-30T10:40:49.732Z,84.01
2018-01-30T10:43:18.950Z,83.54
2018-01-30T10:45:48.183Z,83.92
2018-01-30T10:48:17.398Z,83.28
2018-01-30T10:50:46.595Z,83.33
2018-01-30T10:53:16.610Z,83.12
2018-01-30T10:55:45.846Z,82.88
2018-01-30T10:58:15.150Z,82.30
2018-01-30T11:00:44.399Z,82.09
2018-01-30T11:03:14.502Z,81.87
2018-01-30T11:05:45.458Z,81.87
2018-01-30T11:08:15.592Z,80.67
2018-01-30T11:10:44.822Z,79.56
2018-01-30T11:13:14.172Z,78.76
2018-01-30T11:15:43.847Z,80.53
2018-01-30T11:18:13.237Z,81.22
2018-01-30T11:20:42.497Z,79.88
2018-01-30T11:23:11.723Z,80.32
2018-01-30T11:25:41.011Z,79.70
2018-01-30T11:28:10.299Z,79.99
2018-01-30T11:30:40.996Z,80.18
2018-01-30T11:33:10.284Z,80.19
2018-01-30T11:35:39.607Z,80.27
2018-01-30T11:38:08.865Z,80.05
2018-01-30T11:40:38.172Z,79.37
2018-01-30T11:43:07.363Z,79.53
2018-01-30T11:45:36.620Z,79.42
2018-01-30T11:48:05.996Z,79.79
2018-01-30T11:50:35.975Z,79.48
2018-01-30T11:53:05.241Z,79.53
2018-01-30T11:55:35.249Z,78.99
2018-01-30T11:58:04.579Z,79.26
2018-01-30T12:00:34.089Z,79.25
2018-01-30T12:03:03.320Z,79.45
2018-01-30T12:05:34.159Z,78.70
2018-01-30T12:08:03.593Z,78.70
2018-01-30T12:10:32.898Z,78.89
2018-01-30T12:13:02.135Z,78.73
2018-01-30T12:15:31.376Z,77.86
2018-01-30T12:18:01.466Z,77.13
2018-01-30T12:20:30.680Z,78.12
2018-01-30T12:22:59.993Z,78.11
2018-01-30T12:25:29.225Z,76.11
2018-01-30T12:27:58.482Z,77.15
2018-01-30T12:30:28.497Z,76.85
2018-01-30T12:32:57.798Z,77.16
2018-01-30T12:35:27.857Z,77.52
2018-01-30T12:37:57.091Z,76.67
2018-01-30T12:40:26.299Z,76.69
2018-01-30T12:42:55.666Z,75.34
2018-01-30T12:45:24.854Z,75.18
2018-01-30T12:47:54.064Z,74.76
2018-01-30T12:50:23.600Z,74.89
2018-01-30T12:52:52.842Z,74.86
2018-01-30T12:55:22.067Z,74.92
2018-01-30T12:57:51.369Z,74.55
2018-01-30T13:00:20.619Z,74.63
2018-01-30T13:02:49.839Z,75.30
2018-01-30T13:05:19.107Z,75.89
2018-01-30T13:07:49.064Z,75.68
2018-01-30T13:10:18.311Z,75.78
2018-01-30T13:12:47.597Z,76.08
2018-01-30T13:15:16.866Z,76.04
2018-01-30T13:17:46.094Z,75.85
2018-01-30T13:20:15.332Z,75.31
2018-01-30T13:22:44.570Z,75.58
2018-01-30T13:25:13.792Z,75.05
2018-01-30T13:27:43.016Z,74.29
2018-01-30T13:30:13.239Z,74.29
2018-01-30T13:32:43.422Z,74.77
2018-01-30T13:35:12.654Z,73.55
2018-01-30T13:37:41.867Z,73.55
2018-01-30T13:40:11.078Z,73.67
2018-01-30T13:42:40.306Z,74.52
2018-01-30T13:45:11.046Z,74.42
2018-01-30T13:47:42.032Z,74.24
2018-01-30T13:50:11.254Z,74.35
2018-01-30T13:52:40.478Z,73.97
2018-01-30T13:55:12.074Z,74.47
2018-01-30T13:57:41.329Z,74.92
2018-01-30T14:00:10.743Z,75.28
2018-01-30T14:02:39.975Z,75.49
2018-01-30T14:05:09.979Z,76.04
2018-01-30T14:07:39.941Z,76.45
2018-01-30T14:10:09.213Z,75.79
2018-01-30T14:12:38.412Z,76.90
2018-01-30T14:15:07.656Z,76.52
2018-01-30T14:17:36.874Z,76.87
2018-01-30T14:20:06.893Z,76.85
2018-01-30T14:22:37.643Z,76.81
2018-01-30T14:25:06.880Z,76.89
2018-01-30T14:27:36.131Z,76.74
2018-01-30T14:30:06.123Z,76.56
2018-01-30T14:32:36.887Z,77.09
2018-01-30T14:35:06.914Z,76.76
2018-01-30T14:37:36.880Z,76.87
2018-01-30T14:40:06.905Z,76.92
2018-01-30T14:42:36.125Z,76.70
2018-01-30T14:45:06.132Z,76.91
2018-01-30T14:47:36.142Z,76.50
2018-01-30T14:50:05.336Z,76.01
2018-01-30T14:52:35.317Z,76.36
2018-01-30T14:55:04.621Z,76.58
2018-01-30T14:57:33.960Z,76.87
2018-01-30T15:00:03.142Z,76.49
2018-01-30T15:02:32.378Z,77.26
2018-01-30T15:05:02.351Z,77.17
2018-01-30T15:07:31.662Z,77.09
2018-01-30T15:10:00.871Z,77.11
2018-01-30T15:12:30.086Z,77.40
2018-01-30T15:14:59.321Z,77.38
2018-01-30T15:17:28.557Z,77.30
2018-01-30T15:19:58.582Z,77.36
2018-01-30T15:22:28.582Z,77.48
2018-01-30T15:24:57.828Z,77.71
2018-01-30T15:27:27.046Z,77.98
2018-01-30T15:29:56.294Z,77.59
2018-01-30T15:32:25.551Z,77.76
2018-01-30T15:34:54.817Z,77.57
2018-01-30T15:37:24.021Z,78.02
2018-01-30T15:39:53.279Z,76.97
2018-01-30T15:42:22.492Z,77.31
2018-01-30T15:44:51.734Z,77.48
2018-01-30T15:47:20.975Z,77.86
2018-01-30T15:49:50.235Z,78.45
2018-01-30T15:52:19.449Z,78.30
2018-01-30T15:54:48.690Z,78.12
2018-01-30T15:57:18.178Z,78.21
2018-01-30T15:59:47.426Z,78.17
2018-01-30T16:02:16.672Z,78.21
2018-01-30T16:04:46.704Z,78.03
2018-01-30T16:07:16.660Z,78.26
2018-01-30T16:09:45.903Z,78.33
2018-01-30T16:12:15.152Z,78.20
2018-01-30T16:14:44.346Z,78.68
2018-01-30T16:17:13.597Z,78.95
2018-01-30T16:19:43.587Z,78.64
2018-01-30T16:22:12.826Z,78.72
2018-01-30T16:24:42.040Z,78.95
2018-01-30T16:27:12.014Z,78.90
2018-01-30T16:29:41.211Z,79.09
2018-01-30T16:32:12.056Z,79.49
2018-01-30T16:34:42.075Z,79.99
2018-01-30T16:37:12.095Z,80.03
2018-01-30T16:39:42.080Z,80.13
2018-01-30T16:42:11.290Z,80.39
2018-01-30T16:44:40.539Z,80.63
2018-01-30T16:47:09.757Z,80.93
2018-01-30T16:49:40.112Z,81.36
2018-01-30T16:52:09.337Z,81.68
2018-01-30T16:54:39.320Z,81.75
2018-01-30T16:57:08.535Z,81.97
2018-01-30T16:59:38.546Z,82.27
2018-01-30T17:02:07.815Z,82.31
2018-01-30T17:04:37.151Z,82.58
2018-01-30T17:07:07.145Z,82.83
2018-01-30T17:09:36.383Z,82.95
2018-01-30T17:12:05.634Z,82.90
2018-01-30T17:14:34.899Z,82.95
2018-01-30T17:17:04.115Z,83.02
2018-01-30T17:19:33.566Z,83.26
2018-01-30T17:22:03.789Z,83.10
2018-01-30T17:24:33.755Z,83.58
2018-01-30T17:27:03.324Z,83.62
2018-01-30T17:29:32.632Z,83.83
2018-01-30T17:32:02.623Z,83.99
2018-01-30T17:34:32.630Z,84.02
2018-01-30T17:37:01.885Z,83.75
2018-01-30T17:39:31.126Z,83.75
2018-01-30T17:42:00.366Z,83.97
2018-01-30T17:44:29.577Z,84.08
2018-01-30T17:46:58.841Z,84.34
2018-01-30T17:49:28.133Z,84.50
2018-01-30T17:51:57.383Z,84.49
2018-01-30T17:54:26.579Z,84.24
2018-01-30T17:56:55.816Z,84.45
2018-01-30T17:59:25.799Z,84.56
2018-01-30T18:01:55.010Z,84.48
2018-01-30T18:04:24.227Z,84.36
2018-01-30T18:06:54.260Z,84.51
2018-01-30T18:09:24.451Z,84.57
2018-01-30T18:11:53.808Z,84.64
2018-01-30T18:14:23.016Z,84.76
2018-01-30T18:16:52.256Z,84.79
2018-01-30T18:19:22.258Z,84.47
2018-01-30T18:21:51.588Z,84.73
2018-01-30T18:24:20.820Z,84.55
2018-01-30T18:26:50.032Z,84.80
2018-01-30T18:29:19.278Z,84.92
2018-01-30T18:31:49.282Z,84.62
2018-01-30T18:34:19.325Z,84.72
2018-01-30T18:36:48.571Z,84.86
2018-01-30T18:39:17.830Z,84.91
2018-01-30T18:41:47.074Z,85.08
2018-01-30T18:44:16.352Z,85.18
2018-01-30T18:46:45.550Z,85.44
2018-01-30T18:49:14.758Z,85.59
2018-01-30T18:51:44.059Z,85.62
2018-01-30T18:54:13.298Z,85.49
2018-01-30T18:56:42.555Z,85.51
2018-01-30T18:59:11.809Z,85.71
2018-01-30T19:01:41.072Z,85.75
2018-01-30T19:04:10.282Z,85.94
2018-01-30T19:06:41.015Z,85.94
2018-01-30T19:09:11.087Z,86.09
2018-01-30T19:11:40.350Z,86.14
2018-01-30T19:14:09.629Z,86.05
2018-01-30T19:16:39.635Z,86.01
2018-01-30T19:19:09.623Z,85.97
2018-01-30T19:21:39.299Z,85.95
2018-01-30T19:24:09.312Z,86.10
2018-01-30T19:26:38.589Z,86.21
2018-01-30T19:29:08.615Z,86.30
2018-01-30T19:31:38.675Z,86.35
2018-01-30T19:34:07.914Z,86.36
2018-01-30T19:36:37.899Z,86.39
2018-01-30T19:39:07.180Z,86.38
2018-01-30T19:41:36.417Z,86.12
2018-01-30T19:44:06.427Z,86.11
2018-01-30T19:46:35.670Z,86.30
2018-01-30T19:49:04.906Z,86.27
2018-01-30T19:51:34.285Z,86.29
2018-01-30T19:54:03.560Z,86.24
2018-01-30T19:56:32.812Z,86.09
2018-01-30T19:59:02.063Z,85.90
2018-01-30T20:01:31.318Z,85.63
2018-01-30T20:04:00.603Z,85.52
2018-01-30T20:06:29.904Z,85.55
2018-01-30T20:08:59.210Z,85.52
2018-01-30T20:11:28.743Z,85.51
2018-01-30T20:13:58.727Z,85.33
2018-01-30T20:16:28.252Z,85.08
2018-01-30T20:18:58.395Z,85.13
2018-01-30T20:21:27.705Z,84.89
2018-01-30T20:23:57.812Z,84.80
2018-01-30T20:26:32.570Z,84.45
2018-01-30T20:29:02.515Z,84.25
2018-01-30T20:31:32.711Z,84.48
2018-01-30T20:34:02.696Z,84.40
2018-01-30T20:36:32.087Z,84.39
2018-01-30T20:39:01.313Z,84.18
2018-01-30T20:41:30.555Z,84.42
2018-01-30T20:43:59.822Z,83.97
2018-01-30T20:46:29.024Z,83.66
2018-01-30T20:48:58.285Z,83.37
2018-01-30T20:51:28.277Z,82.89
2018-01-30T20:53:58.306Z,82.74
2018-01-30T20:56:28.339Z,82.73
2018-01-30T20:58:57.569Z,82.61
2018-01-30T21:01:26.831Z,82.19
2018-01-30T21:03:56.158Z,82.25
2018-01-30T21:06:25.367Z,81.55
2018-01-30T21:08:54.604Z,81.77
2018-01-30T21:11:24.623Z,81.48
2018-01-30T21:13:54.633Z,81.31
2018-01-30T21:16:24.614Z,81.46
2018-01-30T21:18:53.896Z,81.45
2018-01-30T21:21:23.230Z,81.12
2018-01-30T21:23:52.721Z,80.91
2018-01-30T21:26:22.463Z,81.32
2018-01-30T21:28:51.670Z,81.04
2018-01-30T21:31:20.927Z,81.23
2018-01-30T21:33:50.134Z,81.17
2018-01-30T21:36:19.366Z,81.06
2018-01-30T21:38:49.523Z,81.15
2018-01-30T21:41:18.750Z,81.07
2018-01-30T21:43:47.967Z,81.16
2018-01-30T21:46:17.200Z,81.48
2018-01-30T21:48:47.167Z,81.55
2018-01-30T21:51:16.405Z,81.75
2018-01-30T21:53:46.460Z,81.05
2018-01-30T21:56:16.698Z,81.00
2018-01-30T21:58:46.011Z,81.10
2018-01-30T22:01:15.239Z,81.10
2018-01-30T22:03:45.237Z,81.29
2018-01-30T22:06:14.515Z,80.94
2018-01-30T22:08:43.727Z,80.74
2018-01-30T22:11:13.019Z,80.81
2018-01-30T22:13:42.220Z,80.86
2018-01-30T22:16:12.210Z,80.58
2018-01-30T22:18:41.404Z,81.16
2018-01-30T22:21:10.621Z,80.88
2018-01-30T22:23:39.880Z,80.62
2018-01-30T22:26:09.130Z,80.74
2018-01-30T22:28:38.357Z,80.27
2018-01-30T22:31:07.570Z,80.11
2018-01-30T22:33:36.786Z,80.42
2018-01-30T22:36:06.060Z,80.44
2018-01-30T22:38:35.222Z,80.19
2018-01-30T22:41:04.427Z,80.16
2018-01-30T22:43:34.425Z,79.91
2018-01-30T22:46:03.721Z,80.15
